ADDS METAR Data INFO
IDs: Format: Raw Decoded Include TAF

Data at: 1955 UTC 15 Dec 2017

KGEZ 151853Z AUTO 25018G24KT 10SM BKN024 BKN029 OVC034 00/M07 A2999 RMK AO2 SNB19E28 SLP164 P0000 T00001072
KGEZ 151753Z AUTO 25012KT 10SM OVC027 M01/M07 A2999 RMK AO2 SLP164 T10111072 11006 21039 58008
KGEZ 151653Z AUTO 24012KT 10SM OVC028 M01/M08 A3001 RMK AO2 SLP172 T10111078
KGEZ 151628Z AUTO 24011KT 10SM BKN028 OVC046 M02/M08 A3002 RMK AO2 T10171083
KGEZ 151553Z AUTO 25012KT 10SM FEW027 OVC046 M02/M08 A3002 RMK AO2 SLP177 T10171083
KGEZ 151453Z AUTO 24012KT 10SM OVC045 M02/M08 A3001 RMK AO2 SLP172 T10171078 50001
KGEZ 151353Z AUTO 24006KT 10SM OVC031 M03/M08 A3001 RMK AO2 SLP173 T10331083
KGEZ 151253Z AUTO 22007KT 10SM OVC034 M04/M08 A3002 RMK AO2 SLP174 T10391083
KGEZ 151153Z AUTO 22006KT 10SM OVC038 M04/M08 A3001 RMK AO2 SLP171 T10391083 11039 21083 58008
KGEZ 151053Z AUTO 20007KT 10SM OVC036 M04/M08 A3002 RMK AO2 SLP175 T10441083
KGEZ 150953Z AUTO 19007KT 10SM OVC039 M05/M09 A3003 RMK AO2 SLP177 T10501089
KGEZ 150853Z AUTO 19004KT 10SM OVC040 M06/M09 A3003 RMK AO2 SLP179 T10611094 55010
KGEZ 150753Z AUTO 18003KT 10SM CLR M07/M11 A3003 RMK AO2 SLP179 T10671106
KGEZ 150653Z AUTO 16005KT 10SM CLR M07/M11 A3004 RMK AO2 SLP184 T10721106
KGEZ 150553Z AUTO 15004KT 10SM CLR M06/M09 A3006 RMK AO2 SLP190 T10611094 11039 21067 58008
KGEZ 150453Z AUTO 14003KT 10SM CLR M06/M09 A3007 RMK AO2 SLP194 T10611094 400171067
KGEZ 150353Z AUTO 10003KT 10SM CLR M06/M09 A3008 RMK AO2 SLP197 T10611094
KGEZ 150253Z AUTO 00000KT 10SM CLR M06/M10 A3009 RMK AO2 SLP199 T10561100 53002
KGEZ 150153Z AUTO 00000KT 10SM CLR M04/M09 A3008 RMK AO2 SLP198 T10441094
KGEZ 150053Z AUTO 00000KT 10SM CLR M04/M09 A3007 RMK AO2 SLP193 T10391094
KGEZ 142353Z AUTO 20004KT 10SM CLR M04/M10 A3008 RMK AO2 SLP195 T10391100 11011 21050 51013
KGEZ 142253Z AUTO 15003KT 10SM CLR M03/M11 A3007 RMK AO2 SLP191 T10331106
KGEZ 142153Z AUTO 13003KT 10SM CLR M02/M11 A3006 RMK AO2 SLP187 T10221106
KGEZ 142053Z AUTO 00000KT 10SM CLR M02/M11 A3004 RMK AO2 SLP180 T10171106 55004
KGEZ 141953Z AUTO 07004KT 10SM CLR M02/M10 A3003 RMK AO2 SLP178 T10171100
KGEZ 141853Z AUTO 06006KT 10SM FEW026 M02/M10 A3004 RMK AO2 SLP180 T10171100
KGEZ 141753Z AUTO VRB06KT 10SM FEW021 M03/M09 A3005 RMK AO2 SLP184 T10281094 11028 21056 50013
KGEZ 141653Z AUTO 03006KT 10SM FEW018 M03/M09 A3005 RMK AO2 SLP185 T10281094
KGEZ 141553Z AUTO 36006KT 10SM SCT015 M03/M09 A3005 RMK AO2 SLP182 T10331094
KGEZ 141453Z AUTO 04008KT 10SM FEW014 M04/M09 A3001 RMK AO2 SLP171 T10441094 51026
KGEZ 141353Z AUTO 36008KT 10SM CLR M04/M09 A2999 RMK AO2 SLP161 T10441094
KGEZ 141253Z AUTO 36006KT 10SM CLR M05/M11 A2996 RMK AO2 SLP153 T10501106
KGEZ 141153Z AUTO 35008KT 10SM CLR M04/M11 A2993 RMK AO2 SLP143 T10441106 10000 21044 51043
KGEZ 141053Z AUTO 36014G19KT 10SM OVC033 M03/M10 A2990 RMK AO2 SLP130 T10331100
KGEZ 141040Z AUTO 36013KT 10SM OVC031 M03/M09 A2989 RMK AO2 T10281094
KGEZ 140953Z AUTO 36015G22KT 10SM OVC028 M02/M08 A2985 RMK AO2 PRESRR SLP116 T10171083
KGEZ 140853Z AUTO 33013G21KT 10SM OVC029 M01/M08 A2980 RMK AO2 PK WND 31026/0829 SLP098 T10061078 51037
KGEZ 140828Z AUTO 32017G21KT 10SM OVC029 M01/M07 A2980 RMK AO2 T10061072